sensor_id;sensor_type;location;lat;lon;timestamp;pressure;altitude;pressure_sealevel;temperature;humidity
75409;BME280;63979;55.644;37.734;2022-10-30T00:03:19;98454.22;;;11.25;83.41
75409;BME280;63979;55.644;37.734;2022-10-30T00:08:21;98447.16;;;11.34;83.06
75409;BME280;63979;55.644;37.734;2022-10-30T00:13:24;98437.31;;;11.34;82.79
75409;BME280;63979;55.644;37.734;2022-10-30T00:18:26;98429.47;;;11.33;82.52
75409;BME280;63979;55.644;37.734;2022-10-30T00:23:27;98429.16;;;11.45;82.59
75409;BME280;63979;55.644;37.734;2022-10-30T00:28:28;98423.94;;;11.44;82.68
75409;BME280;63979;55.644;37.734;2022-10-30T00:33:29;98417.88;;;11.51;82.10
75409;BME280;63979;55.644;37.734;2022-10-30T00:38:31;98411.56;;;11.52;81.55
75409;BME280;63979;55.644;37.734;2022-10-30T00:43:34;98410.69;;;11.62;81.19
75409;BME280;63979;55.644;37.734;2022-10-30T00:48:36;98404.63;;;11.60;81.15
75409;BME280;63979;55.644;37.734;2022-10-30T00:53:38;98399.53;;;11.66;80.86
75409;BME280;63979;55.644;37.734;2022-10-30T00:58:43;98396.88;;;11.66;81.00
75409;BME280;63979;55.644;37.734;2022-10-30T01:03:55;98380.88;;;11.56;81.09
75409;BME280;63979;55.644;37.734;2022-10-30T01:08:57;98388.19;;;11.54;81.28
75409;BME280;63979;55.644;37.734;2022-10-30T01:14:04;98367.81;;;11.44;81.21
75409;BME280;63979;55.644;37.734;2022-10-30T01:19:33;98371.22;;;11.46;81.11
75409;BME280;63979;55.644;37.734;2022-10-30T01:25:06;98366.00;;;11.44;81.07
75409;BME280;63979;55.644;37.734;2022-10-30T01:35:22;98357.41;;;11.50;80.49
75409;BME280;63979;55.644;37.734;2022-10-30T01:40:24;98349.41;;;11.50;80.55
75409;BME280;63979;55.644;37.734;2022-10-30T01:51:14;98375.56;;;11.74;79.75
75409;BME280;63979;55.644;37.734;2022-10-30T02:01:39;98357.72;;;11.84;78.75
75409;BME280;63979;55.644;37.734;2022-10-30T02:06:40;98349.78;;;11.93;78.29
75409;BME280;63979;55.644;37.734;2022-10-30T02:11:44;98348.25;;;11.90;78.42
75409;BME280;63979;55.644;37.734;2022-10-30T02:16:49;98311.41;;;11.74;78.10
75409;BME280;63979;55.644;37.734;2022-10-30T02:21:51;98345.34;;;12.01;77.63
75409;BME280;63979;55.644;37.734;2022-10-30T02:26:52;98333.59;;;11.94;77.49
75409;BME280;63979;55.644;37.734;2022-10-30T02:31:53;98356.88;;;12.02;76.65
75409;BME280;63979;55.644;37.734;2022-10-30T02:36:54;98364.22;;;12.00;76.31
75409;BME280;63979;55.644;37.734;2022-10-30T02:41:56;98356.13;;;11.92;75.69
75409;BME280;63979;55.644;37.734;2022-10-30T02:46:57;98327.75;;;11.81;74.51
75409;BME280;63979;55.644;37.734;2022-10-30T02:51:58;98354.88;;;11.76;73.20
75409;BME280;63979;55.644;37.734;2022-10-30T02:56:59;98356.56;;;11.87;72.29
75409;BME280;63979;55.644;37.734;2022-10-30T03:02:00;98346.03;;;11.85;72.77
75409;BME280;63979;55.644;37.734;2022-10-30T03:07:02;98343.81;;;11.71;72.74
75409;BME280;63979;55.644;37.734;2022-10-30T03:12:03;98332.31;;;11.61;73.19
75409;BME280;63979;55.644;37.734;2022-10-30T03:17:05;98342.88;;;11.63;72.62
75409;BME280;63979;55.644;37.734;2022-10-30T03:22:06;98328.13;;;11.59;72.57
75409;BME280;63979;55.644;37.734;2022-10-30T03:27:08;98346.00;;;11.58;72.51
75409;BME280;63979;55.644;37.734;2022-10-30T03:32:10;98340.56;;;11.40;72.13
75409;BME280;63979;55.644;37.734;2022-10-30T03:37:11;98339.78;;;11.30;72.20
75409;BME280;63979;55.644;37.734;2022-10-30T03:42:12;98367.94;;;11.15;72.78
75409;BME280;63979;55.644;37.734;2022-10-30T03:47:14;98330.84;;;11.02;72.28
75409;BME280;63979;55.644;37.734;2022-10-30T03:52:15;98358.34;;;11.22;72.34
75409;BME280;63979;55.644;37.734;2022-10-30T03:57:16;98370.03;;;11.21;72.55
75409;BME280;63979;55.644;37.734;2022-10-30T04:02:17;98358.41;;;11.03;72.46
75409;BME280;63979;55.644;37.734;2022-10-30T04:07:18;98344.56;;;10.80;72.20
75409;BME280;63979;55.644;37.734;2022-10-30T04:12:19;98321.53;;;10.59;72.07
75409;BME280;63979;55.644;37.734;2022-10-30T04:17:21;98353.25;;;10.72;71.80
75409;BME280;63979;55.644;37.734;2022-10-30T04:22:22;98366.34;;;10.56;72.06
75409;BME280;63979;55.644;37.734;2022-10-30T04:27:23;98363.25;;;10.51;72.08
75409;BME280;63979;55.644;37.734;2022-10-30T04:32:25;98369.69;;;10.58;71.68
75409;BME280;63979;55.644;37.734;2022-10-30T04:37:26;98372.91;;;10.71;71.67
75409;BME280;63979;55.644;37.734;2022-10-30T04:42:28;98355.66;;;10.56;71.11
75409;BME280;63979;55.644;37.734;2022-10-30T04:47:29;98361.81;;;10.66;70.79
75409;BME280;63979;55.644;37.734;2022-10-30T04:52:30;98309.19;;;10.49;70.37
75409;BME280;63979;55.644;37.734;2022-10-30T04:57:32;98365.75;;;10.62;69.93
75409;BME280;63979;55.644;37.734;2022-10-30T05:02:34;98361.97;;;10.55;69.43
75409;BME280;63979;55.644;37.734;2022-10-30T05:07:38;98361.41;;;10.51;70.27
75409;BME280;63979;55.644;37.734;2022-10-30T05:12:41;98346.66;;;10.38;69.87
75409;BME280;63979;55.644;37.734;2022-10-30T05:17:43;98351.56;;;10.61;69.43
75409;BME280;63979;55.644;37.734;2022-10-30T05:22:44;98366.56;;;10.91;68.09
75409;BME280;63979;55.644;37.734;2022-10-30T05:27:45;98368.97;;;10.75;68.52
75409;BME280;63979;55.644;37.734;2022-10-30T05:32:46;98375.28;;;10.74;68.35
75409;BME280;63979;55.644;37.734;2022-10-30T05:37:47;98368.97;;;10.85;68.30
75409;BME280;63979;55.644;37.734;2022-10-30T05:42:48;98377.25;;;11.75;64.66
75409;BME280;63979;55.644;37.734;2022-10-30T05:48:04;98376.13;;;12.68;61.40
75409;BME280;63979;55.644;37.734;2022-10-30T05:53:06;98375.47;;;13.62;57.62
75409;BME280;63979;55.644;37.734;2022-10-30T05:58:08;98392.94;;;12.78;60.82
75409;BME280;63979;55.644;37.734;2022-10-30T06:03:10;98396.25;;;12.09;62.49
75409;BME280;63979;55.644;37.734;2022-10-30T06:08:15;98376.78;;;11.62;64.03
75409;BME280;63979;55.644;37.734;2022-10-30T06:13:16;98400.38;;;11.67;64.88
75409;BME280;63979;55.644;37.734;2022-10-30T06:18:17;98390.25;;;11.23;63.15
75409;BME280;63979;55.644;37.734;2022-10-30T06:23:19;98404.19;;;11.17;63.62
75409;BME280;63979;55.644;37.734;2022-10-30T06:28:20;98394.38;;;10.99;63.00
75409;BME280;63979;55.644;37.734;2022-10-30T06:33:21;98416.03;;;10.86;62.17
75409;BME280;63979;55.644;37.734;2022-10-30T06:38:22;98426.88;;;10.84;61.69
75409;BME280;63979;55.644;37.734;2022-10-30T06:43:24;98418.16;;;10.92;60.68
75409;BME280;63979;55.644;37.734;2022-10-30T06:48:25;98418.84;;;10.75;58.02
75409;BME280;63979;55.644;37.734;2022-10-30T06:53:26;98423.34;;;10.45;55.66
75409;BME280;63979;55.644;37.734;2022-10-30T06:58:28;98432.72;;;10.40;55.00
75409;BME280;63979;55.644;37.734;2022-10-30T07:03:29;98436.69;;;10.74;52.33
75409;BME280;63979;55.644;37.734;2022-10-30T07:08:31;98445.09;;;11.84;49.54
75409;BME280;63979;55.644;37.734;2022-10-30T07:13:32;98428.56;;;13.15;45.43
75409;BME280;63979;55.644;37.734;2022-10-30T07:18:33;98427.06;;;14.40;42.07
75409;BME280;63979;55.644;37.734;2022-10-30T07:23:34;98433.56;;;17.09;37.81
75409;BME280;63979;55.644;37.734;2022-10-30T07:28:35;98412.63;;;17.49;35.81
75409;BME280;63979;55.644;37.734;2022-10-30T07:33:37;98432.25;;;17.05;35.75
75409;BME280;63979;55.644;37.734;2022-10-30T07:38:38;98430.88;;;17.62;34.39
75409;BME280;63979;55.644;37.734;2022-10-30T07:43:40;98384.63;;;17.65;33.49
75409;BME280;63979;55.644;37.734;2022-10-30T07:48:41;98408.09;;;19.17;32.67
75409;BME280;63979;55.644;37.734;2022-10-30T07:53:42;98393.78;;;19.23;29.97
75409;BME280;63979;55.644;37.734;2022-10-30T07:58:46;98394.31;;;18.69;31.01
75409;BME280;63979;55.644;37.734;2022-10-30T08:03:47;98398.28;;;17.71;32.08
75409;BME280;63979;55.644;37.734;2022-10-30T08:08:48;98392.81;;;16.81;33.95
75409;BME280;63979;55.644;37.734;2022-10-30T08:13:50;98384.88;;;15.15;37.25
75409;BME280;63979;55.644;37.734;2022-10-30T08:18:52;98397.03;;;13.08;41.08
75409;BME280;63979;55.644;37.734;2022-10-30T08:23:53;98413.16;;;12.55;42.79
75409;BME280;63979;55.644;37.734;2022-10-30T08:28:54;98404.50;;;11.98;44.73
75409;BME280;63979;55.644;37.734;2022-10-30T08:33:55;98412.19;;;11.83;44.83
75409;BME280;63979;55.644;37.734;2022-10-30T08:38:56;98397.50;;;11.88;45.34
75409;BME280;63979;55.644;37.734;2022-10-30T08:43:58;98379.34;;;12.54;43.36
75409;BME280;63979;55.644;37.734;2022-10-30T08:49:00;98415.97;;;12.08;44.73
75409;BME280;63979;55.644;37.734;2022-10-30T08:54:01;98411.63;;;11.80;46.04
75409;BME280;63979;55.644;37.734;2022-10-30T08:59:02;98395.91;;;12.40;44.59
75409;BME280;63979;55.644;37.734;2022-10-30T09:04:03;98388.88;;;12.74;43.16
75409;BME280;63979;55.644;37.734;2022-10-30T09:09:04;98394.84;;;12.33;44.32
75409;BME280;63979;55.644;37.734;2022-10-30T09:14:05;98377.66;;;11.90;45.18
75409;BME280;63979;55.644;37.734;2022-10-30T09:19:08;98389.66;;;11.39;46.52
75409;BME280;63979;55.644;37.734;2022-10-30T09:24:09;98353.91;;;11.03;46.89
75409;BME280;63979;55.644;37.734;2022-10-30T09:29:11;98365.19;;;10.68;48.93
75409;BME280;63979;55.644;37.734;2022-10-30T09:34:15;98362.94;;;10.63;49.12
75409;BME280;63979;55.644;37.734;2022-10-30T09:39:16;98357.63;;;10.54;49.23
75409;BME280;63979;55.644;37.734;2022-10-30T09:50:29;98349.16;;;10.20;50.33
75409;BME280;63979;55.644;37.734;2022-10-30T09:55:41;98344.09;;;10.07;50.47
75409;BME280;63979;55.644;37.734;2022-10-30T10:01:18;98364.50;;;10.56;49.99
75409;BME280;63979;55.644;37.734;2022-10-30T10:06:22;98317.19;;;10.39;49.11
75409;BME280;63979;55.644;37.734;2022-10-30T10:11:28;98281.25;;;10.14;50.26
75409;BME280;63979;55.644;37.734;2022-10-30T10:16:34;98339.78;;;10.64;50.52
75409;BME280;63979;55.644;37.734;2022-10-30T10:21:57;98345.09;;;10.16;52.81
75409;BME280;63979;55.644;37.734;2022-10-30T10:38:38;98314.22;;;16.47;32.45
75409;BME280;63979;55.644;37.734;2022-10-30T10:44:00;98337.22;;;16.66;29.31
75409;BME280;63979;55.644;37.734;2022-10-30T10:54:41;98326.53;;;13.60;34.11
75409;BME280;63979;55.644;37.734;2022-10-30T10:59:47;98282.53;;;12.05;37.41
75409;BME280;63979;55.644;37.734;2022-10-30T11:04:54;98343.94;;;11.42;38.94
75409;BME280;63979;55.644;37.734;2022-10-30T11:10:00;98326.28;;;10.75;40.48
75409;BME280;63979;55.644;37.734;2022-10-30T11:15:15;98329.81;;;10.27;41.98
75409;BME280;63979;55.644;37.734;2022-10-30T11:20:33;98302.81;;;8.51;54.76
75409;BME280;63979;55.644;37.734;2022-10-30T11:25:36;98401.63;;;8.24;58.74
75409;BME280;63979;55.644;37.734;2022-10-30T11:30:38;98376.97;;;8.22;60.16
75409;BME280;63979;55.644;37.734;2022-10-30T11:35:42;98423.59;;;7.71;61.18
75409;BME280;63979;55.644;37.734;2022-10-30T11:40:50;98383.84;;;8.67;58.71
75409;BME280;63979;55.644;37.734;2022-10-30T11:45:53;98390.47;;;8.94;56.52
75409;BME280;63979;55.644;37.734;2022-10-30T11:50:59;98409.81;;;12.26;49.52
75409;BME280;63979;55.644;37.734;2022-10-30T11:56:03;98369.91;;;14.88;40.23
75409;BME280;63979;55.644;37.734;2022-10-30T12:01:25;98294.94;;;16.58;33.11
75409;BME280;63979;55.644;37.734;2022-10-30T12:06:28;98391.31;;;17.39;31.21
75409;BME280;63979;55.644;37.734;2022-10-30T12:11:32;98347.13;;;18.35;29.47
75409;BME280;63979;55.644;37.734;2022-10-30T12:16:34;98378.13;;;19.68;27.62
75409;BME280;63979;55.644;37.734;2022-10-30T12:21:39;98392.16;;;20.19;26.78
75409;BME280;63979;55.644;37.734;2022-10-30T12:26:46;98373.97;;;17.71;29.37
75409;BME280;63979;55.644;37.734;2022-10-30T12:37:08;98403.59;;;11.33;41.68
75409;BME280;63979;55.644;37.734;2022-10-30T12:42:15;98392.44;;;9.83;45.84
75409;BME280;63979;55.644;37.734;2022-10-30T12:52:40;98385.13;;;8.52;49.19
75409;BME280;63979;55.644;37.734;2022-10-30T12:58:32;98440.44;;;7.26;55.42
75409;BME280;63979;55.644;37.734;2022-10-30T13:03:48;98440.22;;;6.47;58.21
75409;BME280;63979;55.644;37.734;2022-10-30T13:19:55;98481.41;;;5.78;63.92
75409;BME280;63979;55.644;37.734;2022-10-30T13:25:22;98456.69;;;5.28;66.64
75409;BME280;63979;55.644;37.734;2022-10-30T13:30:33;98448.25;;;4.71;69.47
75409;BME280;63979;55.644;37.734;2022-10-30T13:52:13;98467.88;;;4.94;70.78
75409;BME280;63979;55.644;37.734;2022-10-30T14:07:41;98439.66;;;4.55;69.31
75409;BME280;63979;55.644;37.734;2022-10-30T14:28:23;98447.22;;;4.47;66.31
75409;BME280;63979;55.644;37.734;2022-10-30T14:38:41;98499.38;;;4.57;67.53
75409;BME280;63979;55.644;37.734;2022-10-30T14:44:45;98479.88;;;4.73;67.57
75409;BME280;63979;55.644;37.734;2022-10-30T14:54:48;98476.25;;;4.34;69.59
75409;BME280;63979;55.644;37.734;2022-10-30T15:00:26;98539.06;;;4.43;69.14
75409;BME280;63979;55.644;37.734;2022-10-30T15:05:56;98544.78;;;4.23;69.92
75409;BME280;63979;55.644;37.734;2022-10-30T15:11:11;98491.94;;;3.53;69.68
75409;BME280;63979;55.644;37.734;2022-10-30T15:16:16;98520.28;;;3.35;69.14
75409;BME280;63979;55.644;37.734;2022-10-30T15:21:20;98569.66;;;3.48;70.67
75409;BME280;63979;55.644;37.734;2022-10-30T15:26:31;98529.41;;;3.30;71.51
75409;BME280;63979;55.644;37.734;2022-10-30T15:31:34;98555.63;;;3.47;71.51
75409;BME280;63979;55.644;37.734;2022-10-30T15:36:42;98593.69;;;3.57;72.10
75409;BME280;63979;55.644;37.734;2022-10-30T15:41:46;98542.97;;;3.38;72.95
75409;BME280;63979;55.644;37.734;2022-10-30T15:46:53;98588.44;;;3.71;72.08
75409;BME280;63979;55.644;37.734;2022-10-30T15:51:56;98612.56;;;3.80;72.38
75409;BME280;63979;55.644;37.734;2022-10-30T15:56:59;98606.06;;;3.71;71.15
75409;BME280;63979;55.644;37.734;2022-10-30T16:02:00;98618.78;;;3.79;68.78
75409;BME280;63979;55.644;37.734;2022-10-30T16:07:16;98561.38;;;3.54;67.25
75409;BME280;63979;55.644;37.734;2022-10-30T16:12:18;98623.72;;;3.85;64.78
75409;BME280;63979;55.644;37.734;2022-10-30T16:17:20;98558.50;;;3.42;62.59
75409;BME280;63979;55.644;37.734;2022-10-30T16:22:26;98618.50;;;3.69;65.41
75409;BME280;63979;55.644;37.734;2022-10-30T16:27:28;98614.72;;;3.73;66.42
75409;BME280;63979;55.644;37.734;2022-10-30T16:32:31;98586.53;;;3.59;64.80
75409;BME280;63979;55.644;37.734;2022-10-30T16:37:37;98639.72;;;3.82;65.92
75409;BME280;63979;55.644;37.734;2022-10-30T16:42:39;98595.81;;;3.36;64.58
75409;BME280;63979;55.644;37.734;2022-10-30T16:47:45;98609.38;;;3.30;64.19
75409;BME280;63979;55.644;37.734;2022-10-30T16:52:51;98612.91;;;3.15;63.97
75409;BME280;63979;55.644;37.734;2022-10-30T16:57:54;98532.44;;;2.48;63.68
75409;BME280;63979;55.644;37.734;2022-10-30T17:02:57;98615.41;;;2.87;64.62
75409;BME280;63979;55.644;37.734;2022-10-30T17:08:04;98612.28;;;2.80;64.93
75409;BME280;63979;55.644;37.734;2022-10-30T17:13:54;98619.22;;;2.97;64.86
75409;BME280;63979;55.644;37.734;2022-10-30T17:19:26;98626.91;;;2.86;65.04
75409;BME280;63979;55.644;37.734;2022-10-30T17:24:24;98586.81;;;2.49;65.88
75409;BME280;63979;55.644;37.734;2022-10-30T17:34:38;98566.41;;;2.37;67.35
75409;BME280;63979;55.644;37.734;2022-10-30T17:39:39;98614.16;;;2.78;66.88
75409;BME280;63979;55.644;37.734;2022-10-30T17:44:40;98622.13;;;2.92;67.50
75409;BME280;63979;55.644;37.734;2022-10-30T17:49:41;98617.13;;;2.88;66.83
75409;BME280;63979;55.644;37.734;2022-10-30T17:54:44;98551.56;;;2.52;67.45
75409;BME280;63979;55.644;37.734;2022-10-30T17:59:45;98610.09;;;2.57;67.29
75409;BME280;63979;55.644;37.734;2022-10-30T18:04:46;98609.66;;;2.48;68.26
75409;BME280;63979;55.644;37.734;2022-10-30T18:09:48;98590.88;;;2.39;68.79
75409;BME280;63979;55.644;37.734;2022-10-30T18:14:51;98591.03;;;2.36;68.33
75409;BME280;63979;55.644;37.734;2022-10-30T18:19:53;98539.72;;;1.96;68.43
75409;BME280;63979;55.644;37.734;2022-10-30T18:24:54;98582.28;;;2.19;68.19
75409;BME280;63979;55.644;37.734;2022-10-30T18:29:55;98587.81;;;2.15;68.07
75409;BME280;63979;55.644;37.734;2022-10-30T18:34:57;98605.78;;;2.07;68.76
75409;BME280;63979;55.644;37.734;2022-10-30T18:39:58;98564.84;;;1.85;68.25
75409;BME280;63979;55.644;37.734;2022-10-30T18:45:00;98605.09;;;2.03;68.08
75409;BME280;63979;55.644;37.734;2022-10-30T18:50:01;98604.50;;;1.98;68.73
75409;BME280;63979;55.644;37.734;2022-10-30T18:55:24;98601.09;;;1.96;67.71
75409;BME280;63979;55.644;37.734;2022-10-30T19:00:27;98610.09;;;1.92;67.21
75409;BME280;63979;55.644;37.734;2022-10-30T19:05:51;98631.31;;;1.89;66.98
75409;BME280;63979;55.644;37.734;2022-10-30T19:10:53;98621.88;;;1.85;66.90
75409;BME280;63979;55.644;37.734;2022-10-30T19:15:56;98609.22;;;1.76;66.62
75409;BME280;63979;55.644;37.734;2022-10-30T19:21:00;98579.69;;;1.53;66.36
75409;BME280;63979;55.644;37.734;2022-10-30T19:26:01;98615.84;;;1.66;66.05
75409;BME280;63979;55.644;37.734;2022-10-30T19:31:02;98594.47;;;1.56;65.78
75409;BME280;63979;55.644;37.734;2022-10-30T19:36:04;98572.75;;;1.35;64.83
75409;BME280;63979;55.644;37.734;2022-10-30T19:41:08;98598.00;;;1.55;65.70
75409;BME280;63979;55.644;37.734;2022-10-30T19:46:10;98582.41;;;1.35;64.55
75409;BME280;63979;55.644;37.734;2022-10-30T19:51:12;98611.09;;;1.56;65.14
75409;BME280;63979;55.644;37.734;2022-10-30T19:56:13;98605.28;;;1.50;64.57
75409;BME280;63979;55.644;37.734;2022-10-30T20:01:15;98620.81;;;1.54;64.04
75409;BME280;63979;55.644;37.734;2022-10-30T20:06:16;98596.88;;;1.43;64.47
75409;BME280;63979;55.644;37.734;2022-10-30T20:11:18;98600.28;;;1.45;63.90
75409;BME280;63979;55.644;37.734;2022-10-30T20:16:20;98599.25;;;1.48;64.04
75409;BME280;63979;55.644;37.734;2022-10-30T20:21:21;98601.22;;;1.44;63.58
75409;BME280;63979;55.644;37.734;2022-10-30T20:26:28;98604.34;;;1.34;63.62
75409;BME280;63979;55.644;37.734;2022-10-30T20:31:30;98584.19;;;1.34;62.18
75409;BME280;63979;55.644;37.734;2022-10-30T20:36:31;98598.88;;;1.38;62.07
75409;BME280;63979;55.644;37.734;2022-10-30T20:41:32;98592.16;;;1.33;61.25
75409;BME280;63979;55.644;37.734;2022-10-30T20:46:34;98601.28;;;1.43;61.60
75409;BME280;63979;55.644;37.734;2022-10-30T20:51:35;98601.50;;;1.38;61.94
75409;BME280;63979;55.644;37.734;2022-10-30T20:56:36;98603.75;;;1.29;61.71
75409;BME280;63979;55.644;37.734;2022-10-30T21:01:37;98605.59;;;1.27;61.82
75409;BME280;63979;55.644;37.734;2022-10-30T21:06:38;98544.63;;;0.85;61.42
75409;BME280;63979;55.644;37.734;2022-10-30T21:11:40;98601.34;;;1.24;61.25
75409;BME280;63979;55.644;37.734;2022-10-30T21:16:41;98592.25;;;1.14;60.68
75409;BME280;63979;55.644;37.734;2022-10-30T21:21:43;98603.44;;;1.17;60.87
75409;BME280;63979;55.644;37.734;2022-10-30T21:26:44;98547.09;;;0.88;60.43
75409;BME280;63979;55.644;37.734;2022-10-30T21:31:45;98603.84;;;1.10;60.14
75409;BME280;63979;55.644;37.734;2022-10-30T21:36:46;98599.78;;;1.03;60.67
75409;BME280;63979;55.644;37.734;2022-10-30T21:41:47;98600.28;;;1.11;59.65
75409;BME280;63979;55.644;37.734;2022-10-30T21:46:49;98555.44;;;0.79;59.65
75409;BME280;63979;55.644;37.734;2022-10-30T21:51:50;98609.38;;;1.04;60.22
75409;BME280;63979;55.644;37.734;2022-10-30T21:56:52;98615.63;;;1.01;60.05
75409;BME280;63979;55.644;37.734;2022-10-30T22:01:53;98617.56;;;0.98;59.37
75409;BME280;63979;55.644;37.734;2022-10-30T22:06:54;98604.66;;;0.93;59.16
75409;BME280;63979;55.644;37.734;2022-10-30T22:11:55;98613.72;;;1.05;59.25
75409;BME280;63979;55.644;37.734;2022-10-30T22:16:56;98610.56;;;1.15;58.18
75409;BME280;63979;55.644;37.734;2022-10-30T22:21:58;98611.56;;;1.13;58.20
75409;BME280;63979;55.644;37.734;2022-10-30T22:26:58;98606.75;;;1.04;58.66
75409;BME280;63979;55.644;37.734;2022-10-30T22:32:00;98570.44;;;0.77;58.78
75409;BME280;63979;55.644;37.734;2022-10-30T22:37:01;98589.91;;;0.90;59.95
75409;BME280;63979;55.644;37.734;2022-10-30T22:42:03;98606.97;;;0.82;59.78
75409;BME280;63979;55.644;37.734;2022-10-30T22:47:04;98615.78;;;0.81;60.30
75409;BME280;63979;55.644;37.734;2022-10-30T22:52:05;98606.69;;;0.69;60.49
75409;BME280;63979;55.644;37.734;2022-10-30T22:57:06;98597.16;;;0.85;60.55
75409;BME280;63979;55.644;37.734;2022-10-30T23:02:07;98592.75;;;0.86;60.55
75409;BME280;63979;55.644;37.734;2022-10-30T23:07:08;98586.66;;;0.85;60.35
75409;BME280;63979;55.644;37.734;2022-10-30T23:12:09;98580.09;;;0.77;60.12
75409;BME280;63979;55.644;37.734;2022-10-30T23:17:10;98586.34;;;0.91;60.90
75409;BME280;63979;55.644;37.734;2022-10-30T23:22:11;98586.03;;;0.98;59.96
75409;BME280;63979;55.644;37.734;2022-10-30T23:27:12;98581.13;;;1.09;59.87
75409;BME280;63979;55.644;37.734;2022-10-30T23:32:13;98577.47;;;1.11;59.73
75409;BME280;63979;55.644;37.734;2022-10-30T23:37:15;98551.91;;;1.15;59.89
75409;BME280;63979;55.644;37.734;2022-10-30T23:42:16;98544.50;;;1.06;60.04
75409;BME280;63979;55.644;37.734;2022-10-30T23:47:17;98557.75;;;1.20;59.62
75409;BME280;63979;55.644;37.734;2022-10-30T23:52:18;98556.69;;;1.24;59.15
75409;BME280;63979;55.644;37.734;2022-10-30T23:57:22;98560.44;;;1.36;59.27
